ワルシャワ の空港の天気 - METARとTAF

ワルシャワ・フレデリック・ショパン空港 ( EPWA / WAW ) - ポーランド ワルシャワ
飛行場実況気象(Metar)
観測時間09/23 12:30 CEST (09/23 10:30 UTC)
風向・風速東北東 4m/s
視程10km以上
天気現象
全天の8割程度の雲 雲底高度 490m
気温15℃
湿度88%
気圧1017hPa
METAREPWA 231030Z 06008KT 9999 BKN016 15/13 Q1017 NOSIG
過去の天気等 Google飛行場航空写真 Wunderground天気予報

過去48時間のMETAR

飛行場予報(TAF)
発表時間: 9/23 07:30 CEST (9/23 05:30 UTC)
予報対象時間: 23日8時 CEST ~ 24日8時 CEST
風向・風速北北東 5m/s
視程10km以上
全天の4割程度の雲 雲底高度 300m
全天の8割程度の雲 雲底高度 430m
23日8時 CEST ~ 23日13時 CEST に一時的に
天気現象しゅう雨
全天の4割程度の雲 雲底高度 180m
全天の8割程度の積乱雲 雲底高度 300m
23日10時 CEST ~ 23日13時 CEST に徐々に
風向・風速東 5m/s
全天の4割程度の雲 雲底高度 760m
24日4時 CEST から 確率 40% で
視程4,000m
天気現象弱い霧雨 もや
全天の8割程度の雲 雲底高度 150m
TAF EPWA 230530Z 2306/2406 03010KT 9999 SCT010 BKN014
TEMPO 2306/2311 SHRA SCT006 BKN010CB
BECMG 2308/2311 10010KT SCT025
PROB40 2402/2406 4000 -DZ BR BKN005